Huvudsida
METAR-TAF:

METAR-TAF

Flygplatser :

Zanjan, Iran

latitud: 36-41N, longitud: 048-29E, höjd: 1663 m

Aktuellt väderrapport

Denna rapport gjordes för 4 timmar och 39 minuter sedan, klockan 15:00 UTC
Vind 8 kt från syd
Temperatur 8°C
Fuktighet 46%
Tryck 1015 hPa
Sikt 10 km eller mer
Brutna moln på en höjd av 5000 ft
Brutna moln på en höjd av 7000 ft

METAR: OITZ 281500Z 17008KT 9999 BKN050 BKN070 08/M03 Q1015

Tid: 23:09 (19:39 UTC)


TAF: saknas

Aktuella väderrapporter och prognoser från 4000 flygplatser (METAR- och TAF-rapporter).

De tillgängliga stationerna syns som gula och röda prickar på kartan.

För musen över prickarna för att se namnen på stationerna.

Klicka sedan för att få väderrapporter och prognoser.

För att ändra kartan: Klicka på de gröna knapparna med ett svart kors på för att zooma in; den gröna knappen med ett streck på för att zooma ut; eller på de gröna pilarna för angränsande kartor.


METAR-TAF: